Copper Center, AK

8:47 PM AKDT on September 18, 2014 (GMT -0800)
Klutina River | Change Station
CLOSE
Current Station
Personal Weather Station
Location: Copper Center, AK
Elevation: 1100 ft
Nearby Weather Stations

Elev 1100 ft 61.95 °N, 145.32 °W | Updated 19 seconds ago

Clear
Clear
45.0 °F
Feels Like 45 °F
N
0.0
Wind Variable Wind from SSE
Gusts 0.0 mph

Today
High -- | Low -- °F
--% Chance of Precip.
Yesterday
High -- | Low -- °F
Precip. -- in
7:15 AM 7:54 PM
Waning Crescent, 22% visible
Pressure 29.04 in
Visibility 10.0 miles
Clouds Clear
Windchill 45 °F
Dew Point 44 °F
Humidity 97%
Rainfall 0.00 in
Snow Depth 0 in , 6 in , 1 in
UV 0 out of 12
Pollen Not available.
Air Quality Not available.
Flu Activity Not available.
METAR PAGK 190353Z AUTO 24004KT 10SM CLR 08/04 A2901 RMK AO2 SLP834 T00830044 TSNO

More Conditions Fewer Conditions

Pressure 29.04 in
Visibility 10.0 miles
Clouds Clear
Windchill 45 °F
Dew Point 44 °F
Humidity 97%
Rainfall 0.00 in
Snow Depth 0 in , 6 in , 1 in
UV 0 out of 12
Pollen Not available.
Air Quality Not available.
Flu Activity Not available.
METAR PAGK 190353Z AUTO 24004KT 10SM CLR 08/04 A2901 RMK AO2 SLP834 T00830044 TSNO

More Conditions Fewer Conditions

10-Day Weather Forecast

Almanac

Astronomy

Sep. 18, 2014 Rise Set
Actual Time 7:15 AM AKDT 7:54 PM AKDT
Civil Twilight 6:30 AM AKDT 8:38 PM AKDT
Nautical Twilight 5:35 AM AKDT 9:33 PM AKDT
Astronomical Twilight 4:33 AM AKDT 10:34 PM AKDT
Moon 1:05 AM AKDT (9/18) 5:53 PM AKDT (9/18)
Length of Visible Light 14h 07m
Length of Day
12h 38m
Tomorrow will be 5m 50s shorter.
Waning Crescent, 22% of the Moon is Illuminated
Sep 19
Waning Crescent
Sep 24
New
Oct 1
First Quarter
Oct 8
Full
Oct 15
Last Quarter

Yesterday's Extremes

State Highs State Lows

Community

WunderPhotos

Upload Photos

1,754,558 photos uploaded!

Nearby

Snow Depth

Station Depth Elevation
Grandview 0 in 1100 ft
Rocky Point 6 in 500 ft
Upper Chena 1 in 2850 ft
MF Bradley River 4 in 2300 ft
Susitna Valley High 1 in 375 ft

Earthquake Activity

City Distance Mag. Time & Date
No recent earthquake activity has been reported nearby.
Minimum magnitude displayed is 2.5.

Coastal Water Temperatures

Place Temperature
No Stations Reporting

Nearby Weather Stations